sensor_id;sensor_type;location;lat;lon;timestamp;temperature;humidity
70947;DHT22;58605;48.700;8.760;2023-08-01T00:02:14;18.50;81.10
70947;DHT22;58605;48.700;8.760;2023-08-01T00:04:41;18.50;80.70
70947;DHT22;58605;48.700;8.760;2023-08-01T00:07:09;18.50;81.20
70947;DHT22;58605;48.700;8.760;2023-08-01T00:09:35;18.50;80.40
70947;DHT22;58605;48.700;8.760;2023-08-01T00:12:01;18.50;79.20
70947;DHT22;58605;48.700;8.760;2023-08-01T00:14:27;18.50;80.50
70947;DHT22;58605;48.700;8.760;2023-08-01T00:16:53;18.50;80.60
70947;DHT22;58605;48.700;8.760;2023-08-01T00:19:19;18.50;80.30
70947;DHT22;58605;48.700;8.760;2023-08-01T00:21:46;18.50;80.50
70947;DHT22;58605;48.700;8.760;2023-08-01T00:24:14;18.50;80.00
70947;DHT22;58605;48.700;8.760;2023-08-01T00:26:40;18.60;80.10
70947;DHT22;58605;48.700;8.760;2023-08-01T00:29:06;18.60;80.30
70947;DHT22;58605;48.700;8.760;2023-08-01T00:31:32;18.60;79.50
70947;DHT22;58605;48.700;8.760;2023-08-01T00:33:59;18.60;79.70
70947;DHT22;58605;48.700;8.760;2023-08-01T00:36:25;18.60;79.30
70947;DHT22;58605;48.700;8.760;2023-08-01T00:38:51;18.80;79.60
70947;DHT22;58605;48.700;8.760;2023-08-01T00:41:19;18.80;78.60
70947;DHT22;58605;48.700;8.760;2023-08-01T00:43:45;18.90;78.40
70947;DHT22;58605;48.700;8.760;2023-08-01T00:46:11;19.00;78.30
70947;DHT22;58605;48.700;8.760;2023-08-01T00:48:37;19.00;77.90
70947;DHT22;58605;48.700;8.760;2023-08-01T00:51:05;19.00;78.00
70947;DHT22;58605;48.700;8.760;2023-08-01T00:53:32;19.10;78.50
70947;DHT22;58605;48.700;8.760;2023-08-01T00:55:58;19.10;77.90
70947;DHT22;58605;48.700;8.760;2023-08-01T00:58:26;19.00;78.20
70947;DHT22;58605;48.700;8.760;2023-08-01T01:00:52;18.90;78.30
70947;DHT22;58605;48.700;8.760;2023-08-01T01:03:18;18.80;79.20
70947;DHT22;58605;48.700;8.760;2023-08-01T01:05:49;18.80;78.90
70947;DHT22;58605;48.700;8.760;2023-08-01T01:08:18;18.70;79.00
70947;DHT22;58605;48.700;8.760;2023-08-01T01:10:44;18.70;79.80
70947;DHT22;58605;48.700;8.760;2023-08-01T01:13:10;18.60;80.90
70947;DHT22;58605;48.700;8.760;2023-08-01T01:15:38;18.70;80.10
70947;DHT22;58605;48.700;8.760;2023-08-01T01:18:04;18.70;79.60
70947;DHT22;58605;48.700;8.760;2023-08-01T01:20:34;18.70;79.00
70947;DHT22;58605;48.700;8.760;2023-08-01T01:23:02;18.70;80.10
70947;DHT22;58605;48.700;8.760;2023-08-01T01:25:30;18.70;79.60
70947;DHT22;58605;48.700;8.760;2023-08-01T01:27:57;18.70;79.80
70947;DHT22;58605;48.700;8.760;2023-08-01T01:30:25;18.60;79.80
70947;DHT22;58605;48.700;8.760;2023-08-01T01:32:52;18.60;79.90
70947;DHT22;58605;48.700;8.760;2023-08-01T01:35:19;18.60;79.50
70947;DHT22;58605;48.700;8.760;2023-08-01T01:37:46;18.60;80.00
70947;DHT22;58605;48.700;8.760;2023-08-01T01:40:12;18.60;80.40
70947;DHT22;58605;48.700;8.760;2023-08-01T01:42:38;18.60;80.10
70947;DHT22;58605;48.700;8.760;2023-08-01T01:45:05;18.60;80.20
70947;DHT22;58605;48.700;8.760;2023-08-01T01:47:31;18.60;79.90
70947;DHT22;58605;48.700;8.760;2023-08-01T01:49:57;18.60;80.40
70947;DHT22;58605;48.700;8.760;2023-08-01T01:52:23;18.70;80.10
70947;DHT22;58605;48.700;8.760;2023-08-01T01:54:51;18.80;79.70
70947;DHT22;58605;48.700;8.760;2023-08-01T01:57:17;18.70;79.30
70947;DHT22;58605;48.700;8.760;2023-08-01T01:59:43;18.70;79.80
70947;DHT22;58605;48.700;8.760;2023-08-01T02:02:09;18.70;79.60
70947;DHT22;58605;48.700;8.760;2023-08-01T02:04:35;18.70;80.30
70947;DHT22;58605;48.700;8.760;2023-08-01T02:07:01;18.90;79.50
70947;DHT22;58605;48.700;8.760;2023-08-01T02:09:28;19.00;78.70
70947;DHT22;58605;48.700;8.760;2023-08-01T02:11:56;19.00;78.60
70947;DHT22;58605;48.700;8.760;2023-08-01T02:14:22;19.00;78.30
70947;DHT22;58605;48.700;8.760;2023-08-01T02:16:48;19.00;78.80
70947;DHT22;58605;48.700;8.760;2023-08-01T02:19:14;19.00;79.20
70947;DHT22;58605;48.700;8.760;2023-08-01T02:21:40;19.00;78.60
70947;DHT22;58605;48.700;8.760;2023-08-01T02:24:06;19.00;78.50
70947;DHT22;58605;48.700;8.760;2023-08-01T02:26:32;19.00;78.40
70947;DHT22;58605;48.700;8.760;2023-08-01T02:29:00;19.20;78.20
70947;DHT22;58605;48.700;8.760;2023-08-01T02:31:26;19.40;77.70
70947;DHT22;58605;48.700;8.760;2023-08-01T02:33:52;19.60;76.80
70947;DHT22;58605;48.700;8.760;2023-08-01T02:36:18;19.70;75.80
70947;DHT22;58605;48.700;8.760;2023-08-01T02:38:44;19.70;76.40
70947;DHT22;58605;48.700;8.760;2023-08-01T02:41:10;19.40;77.80
70947;DHT22;58605;48.700;8.760;2023-08-01T02:43:36;19.40;77.70
70947;DHT22;58605;48.700;8.760;2023-08-01T02:46:04;19.30;77.90
70947;DHT22;58605;48.700;8.760;2023-08-01T02:48:31;19.00;77.90
70947;DHT22;58605;48.700;8.760;2023-08-01T02:50:58;18.80;79.30
70947;DHT22;58605;48.700;8.760;2023-08-01T02:53:24;18.70;79.70
70947;DHT22;58605;48.700;8.760;2023-08-01T02:55:50;18.60;80.00
70947;DHT22;58605;48.700;8.760;2023-08-01T02:58:16;18.60;80.10
70947;DHT22;58605;48.700;8.760;2023-08-01T03:00:42;18.50;80.10
70947;DHT22;58605;48.700;8.760;2023-08-01T03:03:10;18.60;80.10
70947;DHT22;58605;48.700;8.760;2023-08-01T03:05:36;18.60;80.10
70947;DHT22;58605;48.700;8.760;2023-08-01T03:08:03;18.60;80.20
70947;DHT22;58605;48.700;8.760;2023-08-01T03:10:29;18.50;80.10
70947;DHT22;58605;48.700;8.760;2023-08-01T03:12:55;18.40;79.40
70947;DHT22;58605;48.700;8.760;2023-08-01T03:15:21;18.40;79.00
70947;DHT22;58605;48.700;8.760;2023-08-01T03:17:47;18.30;79.40
70947;DHT22;58605;48.700;8.760;2023-08-01T03:20:15;18.40;79.50
70947;DHT22;58605;48.700;8.760;2023-08-01T03:22:41;18.30;79.50
70947;DHT22;58605;48.700;8.760;2023-08-01T03:25:08;18.30;79.70
70947;DHT22;58605;48.700;8.760;2023-08-01T03:27:34;18.30;79.10
70947;DHT22;58605;48.700;8.760;2023-08-01T03:30:00;18.30;79.40
70947;DHT22;58605;48.700;8.760;2023-08-01T03:32:27;18.30;79.40
70947;DHT22;58605;48.700;8.760;2023-08-01T03:34:53;18.30;79.20
70947;DHT22;58605;48.700;8.760;2023-08-01T03:37:20;18.30;80.00
70947;DHT22;58605;48.700;8.760;2023-08-01T03:39:46;18.30;79.60
70947;DHT22;58605;48.700;8.760;2023-08-01T03:42:12;18.30;78.90
70947;DHT22;58605;48.700;8.760;2023-08-01T03:44:38;18.30;79.40
70947;DHT22;58605;48.700;8.760;2023-08-01T03:47:05;18.30;78.90
70947;DHT22;58605;48.700;8.760;2023-08-01T03:49:32;18.30;80.00
70947;DHT22;58605;48.700;8.760;2023-08-01T03:51:58;18.30;80.20
70947;DHT22;58605;48.700;8.760;2023-08-01T03:54:26;18.40;80.10
70947;DHT22;58605;48.700;8.760;2023-08-01T03:56:52;18.40;80.30
70947;DHT22;58605;48.700;8.760;2023-08-01T03:59:18;18.40;79.70
70947;DHT22;58605;48.700;8.760;2023-08-01T04:01:47;18.30;79.20
70947;DHT22;58605;48.700;8.760;2023-08-01T04:04:13;18.30;79.10
70947;DHT22;58605;48.700;8.760;2023-08-01T04:06:39;18.30;79.30
70947;DHT22;58605;48.700;8.760;2023-08-01T04:09:05;18.30;79.30
70947;DHT22;58605;48.700;8.760;2023-08-01T04:11:36;18.30;79.10
70947;DHT22;58605;48.700;8.760;2023-08-01T04:14:02;18.20;79.60
70947;DHT22;58605;48.700;8.760;2023-08-01T04:16:28;18.20;79.80
70947;DHT22;58605;48.700;8.760;2023-08-01T04:18:54;18.10;79.90
70947;DHT22;58605;48.700;8.760;2023-08-01T04:21:20;18.10;80.20
70947;DHT22;58605;48.700;8.760;2023-08-01T04:23:46;18.10;80.20
70947;DHT22;58605;48.700;8.760;2023-08-01T04:26:12;18.10;80.90
70947;DHT22;58605;48.700;8.760;2023-08-01T04:28:40;18.00;80.60
70947;DHT22;58605;48.700;8.760;2023-08-01T04:31:06;18.00;80.50
70947;DHT22;58605;48.700;8.760;2023-08-01T04:33:32;18.00;80.40
70947;DHT22;58605;48.700;8.760;2023-08-01T04:35:58;18.00;80.70
70947;DHT22;58605;48.700;8.760;2023-08-01T04:38:24;17.90;80.70
70947;DHT22;58605;48.700;8.760;2023-08-01T04:40:50;17.90;80.40
70947;DHT22;58605;48.700;8.760;2023-08-01T04:43:17;17.90;80.40
70947;DHT22;58605;48.700;8.760;2023-08-01T04:45:45;17.90;80.00
70947;DHT22;58605;48.700;8.760;2023-08-01T04:48:11;18.00;80.10
70947;DHT22;58605;48.700;8.760;2023-08-01T04:50:37;18.00;79.80
70947;DHT22;58605;48.700;8.760;2023-08-01T04:53:03;18.10;80.10
70947;DHT22;58605;48.700;8.760;2023-08-01T04:55:29;18.10;80.40
70947;DHT22;58605;48.700;8.760;2023-08-01T04:57:55;18.20;80.30
70947;DHT22;58605;48.700;8.760;2023-08-01T05:00:21;18.20;80.00
70947;DHT22;58605;48.700;8.760;2023-08-01T05:02:49;18.20;80.30
70947;DHT22;58605;48.700;8.760;2023-08-01T05:05:15;18.20;80.60
70947;DHT22;58605;48.700;8.760;2023-08-01T05:07:42;18.30;80.00
70947;DHT22;58605;48.700;8.760;2023-08-01T05:10:09;18.30;79.80
70947;DHT22;58605;48.700;8.760;2023-08-01T05:12:35;18.40;80.00
70947;DHT22;58605;48.700;8.760;2023-08-01T05:15:01;18.30;80.10
70947;DHT22;58605;48.700;8.760;2023-08-01T05:17:28;18.30;81.00
70947;DHT22;58605;48.700;8.760;2023-08-01T05:19:55;18.30;80.50
70947;DHT22;58605;48.700;8.760;2023-08-01T05:22:21;18.30;80.10
70947;DHT22;58605;48.700;8.760;2023-08-01T05:24:47;18.30;80.40
70947;DHT22;58605;48.700;8.760;2023-08-01T05:27:13;18.30;80.50
70947;DHT22;58605;48.700;8.760;2023-08-01T05:29:46;18.30;80.40
70947;DHT22;58605;48.700;8.760;2023-08-01T05:32:19;18.40;80.40
70947;DHT22;58605;48.700;8.760;2023-08-01T05:34:45;18.40;80.00
70947;DHT22;58605;48.700;8.760;2023-08-01T05:37:13;18.50;79.90
70947;DHT22;58605;48.700;8.760;2023-08-01T05:39:39;18.50;79.40
70947;DHT22;58605;48.700;8.760;2023-08-01T05:42:34;18.40;79.00
70947;DHT22;58605;48.700;8.760;2023-08-01T05:45:00;18.40;79.20
70947;DHT22;58605;48.700;8.760;2023-08-01T05:47:26;18.40;79.90
70947;DHT22;58605;48.700;8.760;2023-08-01T05:49:52;18.40;80.00
70947;DHT22;58605;48.700;8.760;2023-08-01T05:52:20;18.40;79.10
70947;DHT22;58605;48.700;8.760;2023-08-01T05:54:46;18.40;79.30
70947;DHT22;58605;48.700;8.760;2023-08-01T05:57:12;18.30;78.90
70947;DHT22;58605;48.700;8.760;2023-08-01T05:59:38;18.30;79.20
70947;DHT22;58605;48.700;8.760;2023-08-01T06:02:05;18.20;78.40
70947;DHT22;58605;48.700;8.760;2023-08-01T06:04:31;18.20;78.40
70947;DHT22;58605;48.700;8.760;2023-08-01T06:06:58;18.20;78.90
70947;DHT22;58605;48.700;8.760;2023-08-01T06:09:26;18.20;78.40
70947;DHT22;58605;48.700;8.760;2023-08-01T06:11:52;18.10;78.50
70947;DHT22;58605;48.700;8.760;2023-08-01T06:14:18;18.10;77.50
70947;DHT22;58605;48.700;8.760;2023-08-01T06:16:44;18.00;77.70
70947;DHT22;58605;48.700;8.760;2023-08-01T06:19:10;18.00;77.80
70947;DHT22;58605;48.700;8.760;2023-08-01T06:21:36;18.00;77.90
70947;DHT22;58605;48.700;8.760;2023-08-01T06:24:03;18.00;77.60
70947;DHT22;58605;48.700;8.760;2023-08-01T06:26:30;18.00;77.70
70947;DHT22;58605;48.700;8.760;2023-08-01T06:28:56;18.00;77.80
70947;DHT22;58605;48.700;8.760;2023-08-01T06:31:22;18.00;77.50
70947;DHT22;58605;48.700;8.760;2023-08-01T06:33:48;18.00;77.90
70947;DHT22;58605;48.700;8.760;2023-08-01T06:36:15;18.00;78.40
70947;DHT22;58605;48.700;8.760;2023-08-01T06:38:43;18.00;78.50
70947;DHT22;58605;48.700;8.760;2023-08-01T06:41:09;18.00;78.70
70947;DHT22;58605;48.700;8.760;2023-08-01T06:43:36;18.00;79.10
70947;DHT22;58605;48.700;8.760;2023-08-01T06:46:04;18.00;78.90
70947;DHT22;58605;48.700;8.760;2023-08-01T06:48:30;18.00;79.00
70947;DHT22;58605;48.700;8.760;2023-08-01T06:50:56;18.00;78.90
70947;DHT22;58605;48.700;8.760;2023-08-01T06:53:23;18.00;79.00
70947;DHT22;58605;48.700;8.760;2023-08-01T06:55:49;18.00;79.50
70947;DHT22;58605;48.700;8.760;2023-08-01T06:58:15;18.00;78.80
70947;DHT22;58605;48.700;8.760;2023-08-01T07:00:44;18.00;78.90
70947;DHT22;58605;48.700;8.760;2023-08-01T07:03:10;17.90;78.80
70947;DHT22;58605;48.700;8.760;2023-08-01T07:05:37;17.90;79.10
70947;DHT22;58605;48.700;8.760;2023-08-01T07:08:03;17.90;79.40
70947;DHT22;58605;48.700;8.760;2023-08-01T07:10:30;17.90;79.50
70947;DHT22;58605;48.700;8.760;2023-08-01T07:12:56;17.90;79.60
70947;DHT22;58605;48.700;8.760;2023-08-01T07:15:22;17.80;79.80
70947;DHT22;58605;48.700;8.760;2023-08-01T07:17:49;17.80;80.00
70947;DHT22;58605;48.700;8.760;2023-08-01T07:20:16;17.80;80.00
70947;DHT22;58605;48.700;8.760;2023-08-01T07:22:42;17.80;80.20
70947;DHT22;58605;48.700;8.760;2023-08-01T07:25:09;17.80;80.60
70947;DHT22;58605;48.700;8.760;2023-08-01T07:27:35;17.70;81.00
70947;DHT22;58605;48.700;8.760;2023-08-01T07:30:04;17.70;81.20
70947;DHT22;58605;48.700;8.760;2023-08-01T07:32:30;17.70;81.60
70947;DHT22;58605;48.700;8.760;2023-08-01T07:34:57;17.70;81.80
70947;DHT22;58605;48.700;8.760;2023-08-01T07:37:24;17.70;81.70
70947;DHT22;58605;48.700;8.760;2023-08-01T07:39:50;17.80;81.70
70947;DHT22;58605;48.700;8.760;2023-08-01T07:42:16;17.70;81.70
70947;DHT22;58605;48.700;8.760;2023-08-01T07:44:42;17.70;81.70
70947;DHT22;58605;48.700;8.760;2023-08-01T07:47:08;17.80;81.70
70947;DHT22;58605;48.700;8.760;2023-08-01T07:49:34;17.80;81.80
70947;DHT22;58605;48.700;8.760;2023-08-01T07:52:02;17.80;82.10
70947;DHT22;58605;48.700;8.760;2023-08-01T07:54:28;17.80;82.20
70947;DHT22;58605;48.700;8.760;2023-08-01T07:56:54;17.80;82.20
70947;DHT22;58605;48.700;8.760;2023-08-01T07:59:20;17.70;82.10
70947;DHT22;58605;48.700;8.760;2023-08-01T08:01:47;17.70;82.10
70947;DHT22;58605;48.700;8.760;2023-08-01T08:04:13;17.80;82.30
70947;DHT22;58605;48.700;8.760;2023-08-01T08:06:40;17.80;82.40
70947;DHT22;58605;48.700;8.760;2023-08-01T08:09:07;17.90;82.30
70947;DHT22;58605;48.700;8.760;2023-08-01T08:11:34;17.90;82.30
70947;DHT22;58605;48.700;8.760;2023-08-01T08:14:00;17.90;82.30
70947;DHT22;58605;48.700;8.760;2023-08-01T08:16:26;18.00;82.00
70947;DHT22;58605;48.700;8.760;2023-08-01T08:18:52;18.00;82.00
70947;DHT22;58605;48.700;8.760;2023-08-01T08:21:18;18.00;81.80
70947;DHT22;58605;48.700;8.760;2023-08-01T08:23:44;18.00;82.00
70947;DHT22;58605;48.700;8.760;2023-08-01T08:26:11;18.00;82.40
70947;DHT22;58605;48.700;8.760;2023-08-01T08:28:40;18.00;82.40
70947;DHT22;58605;48.700;8.760;2023-08-01T08:31:09;18.00;82.40
70947;DHT22;58605;48.700;8.760;2023-08-01T08:33:35;18.10;82.50
70947;DHT22;58605;48.700;8.760;2023-08-01T08:36:01;18.00;82.60
70947;DHT22;58605;48.700;8.760;2023-08-01T08:38:27;18.00;82.50
70947;DHT22;58605;48.700;8.760;2023-08-01T08:41:06;18.00;82.60
70947;DHT22;58605;48.700;8.760;2023-08-01T08:43:35;17.90;82.70
70947;DHT22;58605;48.700;8.760;2023-08-01T08:46:30;17.90;82.90
70947;DHT22;58605;48.700;8.760;2023-08-01T08:49:05;18.00;83.00
70947;DHT22;58605;48.700;8.760;2023-08-01T08:51:32;18.00;83.10
70947;DHT22;58605;48.700;8.760;2023-08-01T08:53:58;17.90;83.10
70947;DHT22;58605;48.700;8.760;2023-08-01T08:56:25;17.90;83.20
70947;DHT22;58605;48.700;8.760;2023-08-01T08:58:53;18.00;83.20
70947;DHT22;58605;48.700;8.760;2023-08-01T09:01:19;17.90;83.10
70947;DHT22;58605;48.700;8.760;2023-08-01T09:03:45;17.90;83.40
70947;DHT22;58605;48.700;8.760;2023-08-01T09:06:15;18.00;83.40
70947;DHT22;58605;48.700;8.760;2023-08-01T09:08:50;18.00;83.50
70947;DHT22;58605;48.700;8.760;2023-08-01T09:11:17;18.00;83.50
70947;DHT22;58605;48.700;8.760;2023-08-01T09:13:43;18.00;83.50
70947;DHT22;58605;48.700;8.760;2023-08-01T09:16:12;17.90;83.80
70947;DHT22;58605;48.700;8.760;2023-08-01T09:18:47;17.90;84.10
70947;DHT22;58605;48.700;8.760;2023-08-01T09:21:13;17.90;84.40
70947;DHT22;58605;48.700;8.760;2023-08-01T09:23:39;17.80;84.50
70947;DHT22;58605;48.700;8.760;2023-08-01T09:26:13;17.90;84.60
70947;DHT22;58605;48.700;8.760;2023-08-01T09:28:39;17.90;84.60
70947;DHT22;58605;48.700;8.760;2023-08-01T09:31:05;17.90;84.60
70947;DHT22;58605;48.700;8.760;2023-08-01T09:33:39;17.90;84.70
70947;DHT22;58605;48.700;8.760;2023-08-01T09:36:07;17.90;84.90
70947;DHT22;58605;48.700;8.760;2023-08-01T09:38:34;18.00;85.30
70947;DHT22;58605;48.700;8.760;2023-08-01T09:41:01;18.00;85.10
70947;DHT22;58605;48.700;8.760;2023-08-01T09:43:33;18.10;85.80
70947;DHT22;58605;48.700;8.760;2023-08-01T09:46:07;18.30;85.90
70947;DHT22;58605;48.700;8.760;2023-08-01T09:48:33;18.20;85.50
70947;DHT22;58605;48.700;8.760;2023-08-01T09:51:09;18.10;85.90
70947;DHT22;58605;48.700;8.760;2023-08-01T09:53:46;18.10;86.30
70947;DHT22;58605;48.700;8.760;2023-08-01T09:56:14;18.10;85.90
70947;DHT22;58605;48.700;8.760;2023-08-01T09:58:43;18.00;85.40
70947;DHT22;58605;48.700;8.760;2023-08-01T10:01:11;18.00;86.00
70947;DHT22;58605;48.700;8.760;2023-08-01T10:03:39;18.10;86.30
70947;DHT22;58605;48.700;8.760;2023-08-01T10:06:09;18.00;86.20
70947;DHT22;58605;48.700;8.760;2023-08-01T10:08:37;18.00;85.80
70947;DHT22;58605;48.700;8.760;2023-08-01T10:11:04;18.10;85.80
70947;DHT22;58605;48.700;8.760;2023-08-01T10:13:32;18.10;85.10
70947;DHT22;58605;48.700;8.760;2023-08-01T10:15:58;18.20;85.50
70947;DHT22;58605;48.700;8.760;2023-08-01T10:18:25;18.30;85.60
70947;DHT22;58605;48.700;8.760;2023-08-01T10:20:51;18.50;85.30
70947;DHT22;58605;48.700;8.760;2023-08-01T10:23:19;18.50;84.60
70947;DHT22;58605;48.700;8.760;2023-08-01T10:25:46;18.60;83.10
70947;DHT22;58605;48.700;8.760;2023-08-01T10:28:12;18.60;82.80
70947;DHT22;58605;48.700;8.760;2023-08-01T10:30:38;18.70;80.30
70947;DHT22;58605;48.700;8.760;2023-08-01T10:33:04;18.70;80.80
70947;DHT22;58605;48.700;8.760;2023-08-01T10:35:35;18.60;80.60
70947;DHT22;58605;48.700;8.760;2023-08-01T10:38:05;18.60;80.80
70947;DHT22;58605;48.700;8.760;2023-08-01T10:40:37;18.60;81.00
70947;DHT22;58605;48.700;8.760;2023-08-01T10:43:04;18.60;81.30
70947;DHT22;58605;48.700;8.760;2023-08-01T10:45:30;18.50;80.60
70947;DHT22;58605;48.700;8.760;2023-08-01T10:48:07;18.50;79.20
70947;DHT22;58605;48.700;8.760;2023-08-01T10:50:33;18.50;78.80
70947;DHT22;58605;48.700;8.760;2023-08-01T10:53:05;18.50;80.00
70947;DHT22;58605;48.700;8.760;2023-08-01T10:55:46;18.50;80.80
70947;DHT22;58605;48.700;8.760;2023-08-01T10:58:13;18.50;81.20
70947;DHT22;58605;48.700;8.760;2023-08-01T11:00:39;18.40;80.90
70947;DHT22;58605;48.700;8.760;2023-08-01T11:03:05;18.50;81.20
70947;DHT22;58605;48.700;8.760;2023-08-01T11:05:31;18.60;77.40
70947;DHT22;58605;48.700;8.760;2023-08-01T11:07:59;18.50;78.80
70947;DHT22;58605;48.700;8.760;2023-08-01T11:10:26;18.40;78.70
70947;DHT22;58605;48.700;8.760;2023-08-01T11:12:54;18.50;76.90
70947;DHT22;58605;48.700;8.760;2023-08-01T11:15:20;18.40;78.20
70947;DHT22;58605;48.700;8.760;2023-08-01T11:17:48;18.40;78.60
70947;DHT22;58605;48.700;8.760;2023-08-01T11:20:16;18.50;78.20
70947;DHT22;58605;48.700;8.760;2023-08-01T11:22:50;18.40;78.60
70947;DHT22;58605;48.700;8.760;2023-08-01T11:25:17;18.50;78.60
70947;DHT22;58605;48.700;8.760;2023-08-01T11:27:43;18.50;77.40
70947;DHT22;58605;48.700;8.760;2023-08-01T11:30:12;18.60;76.40
70947;DHT22;58605;48.700;8.760;2023-08-01T11:32:38;18.60;77.50
70947;DHT22;58605;48.700;8.760;2023-08-01T11:35:05;18.60;77.20
70947;DHT22;58605;48.700;8.760;2023-08-01T11:37:32;18.60;77.20
70947;DHT22;58605;48.700;8.760;2023-08-01T11:39:59;18.60;76.40
70947;DHT22;58605;48.700;8.760;2023-08-01T11:42:30;18.50;77.40
70947;DHT22;58605;48.700;8.760;2023-08-01T11:45:08;18.50;77.70
70947;DHT22;58605;48.700;8.760;2023-08-01T11:47:35;18.60;76.40
70947;DHT22;58605;48.700;8.760;2023-08-01T11:50:02;18.60;77.10
70947;DHT22;58605;48.700;8.760;2023-08-01T11:52:28;18.60;76.30
70947;DHT22;58605;48.700;8.760;2023-08-01T11:54:55;18.60;76.70
70947;DHT22;58605;48.700;8.760;2023-08-01T11:57:21;18.60;77.00
70947;DHT22;58605;48.700;8.760;2023-08-01T11:59:48;18.80;74.40
70947;DHT22;58605;48.700;8.760;2023-08-01T12:02:21;18.70;75.50
70947;DHT22;58605;48.700;8.760;2023-08-01T12:04:50;18.70;75.10
70947;DHT22;58605;48.700;8.760;2023-08-01T12:07:16;18.70;75.70
70947;DHT22;58605;48.700;8.760;2023-08-01T12:09:42;18.70;75.70
70947;DHT22;58605;48.700;8.760;2023-08-01T12:12:09;18.60;75.80
70947;DHT22;58605;48.700;8.760;2023-08-01T12:14:39;18.60;74.30
70947;DHT22;58605;48.700;8.760;2023-08-01T12:17:06;18.70;76.80
70947;DHT22;58605;48.700;8.760;2023-08-01T12:19:32;18.70;75.00
70947;DHT22;58605;48.700;8.760;2023-08-01T12:22:01;18.80;72.90
70947;DHT22;58605;48.700;8.760;2023-08-01T12:24:27;18.70;74.10
70947;DHT22;58605;48.700;8.760;2023-08-01T12:26:53;18.70;73.70
70947;DHT22;58605;48.700;8.760;2023-08-01T12:29:19;18.70;74.20
70947;DHT22;58605;48.700;8.760;2023-08-01T12:31:45;18.70;73.00
70947;DHT22;58605;48.700;8.760;2023-08-01T12:34:12;18.60;70.30
70947;DHT22;58605;48.700;8.760;2023-08-01T12:36:38;18.80;71.70
70947;DHT22;58605;48.700;8.760;2023-08-01T12:39:05;18.80;72.00
70947;DHT22;58605;48.700;8.760;2023-08-01T12:41:36;18.80;72.10
70947;DHT22;58605;48.700;8.760;2023-08-01T12:44:03;18.80;70.50
70947;DHT22;58605;48.700;8.760;2023-08-01T12:46:29;18.80;72.30
70947;DHT22;58605;48.700;8.760;2023-08-01T12:48:55;18.70;71.60
70947;DHT22;58605;48.700;8.760;2023-08-01T12:51:21;18.70;70.70
70947;DHT22;58605;48.700;8.760;2023-08-01T12:53:47;18.80;70.90
70947;DHT22;58605;48.700;8.760;2023-08-01T12:56:15;18.80;71.30
70947;DHT22;58605;48.700;8.760;2023-08-01T12:58:41;18.70;69.90
70947;DHT22;58605;48.700;8.760;2023-08-01T13:01:07;18.80;69.50
70947;DHT22;58605;48.700;8.760;2023-08-01T13:03:33;18.90;70.90
70947;DHT22;58605;48.700;8.760;2023-08-01T13:06:00;18.90;70.20
70947;DHT22;58605;48.700;8.760;2023-08-01T13:08:26;18.90;71.70
70947;DHT22;58605;48.700;8.760;2023-08-01T13:10:52;18.90;69.00
70947;DHT22;58605;48.700;8.760;2023-08-01T13:13:19;18.80;69.70
70947;DHT22;58605;48.700;8.760;2023-08-01T13:15:45;18.90;71.10
70947;DHT22;58605;48.700;8.760;2023-08-01T13:18:12;18.80;70.90
70947;DHT22;58605;48.700;8.760;2023-08-01T13:20:39;19.10;68.10
70947;DHT22;58605;48.700;8.760;2023-08-01T13:23:05;19.00;69.60
70947;DHT22;58605;48.700;8.760;2023-08-01T13:25:31;18.90;69.80
70947;DHT22;58605;48.700;8.760;2023-08-01T13:27:57;19.10;68.40
70947;DHT22;58605;48.700;8.760;2023-08-01T13:30:25;19.10;70.30
70947;DHT22;58605;48.700;8.760;2023-08-01T13:32:51;19.10;70.00
70947;DHT22;58605;48.700;8.760;2023-08-01T13:35:18;19.10;69.10
70947;DHT22;58605;48.700;8.760;2023-08-01T13:37:45;19.20;72.00
70947;DHT22;58605;48.700;8.760;2023-08-01T13:40:11;19.10;68.30
70947;DHT22;58605;48.700;8.760;2023-08-01T13:42:40;19.10;70.20
70947;DHT22;58605;48.700;8.760;2023-08-01T13:45:06;19.10;67.90
70947;DHT22;58605;48.700;8.760;2023-08-01T13:47:34;19.40;67.50
70947;DHT22;58605;48.700;8.760;2023-08-01T13:50:00;19.30;67.90
70947;DHT22;58605;48.700;8.760;2023-08-01T13:52:26;19.10;68.80
70947;DHT22;58605;48.700;8.760;2023-08-01T13:54:52;19.10;67.90
70947;DHT22;58605;48.700;8.760;2023-08-01T13:57:18;19.40;67.70
70947;DHT22;58605;48.700;8.760;2023-08-01T13:59:45;19.30;67.50
70947;DHT22;58605;48.700;8.760;2023-08-01T14:02:11;19.50;66.50
70947;DHT22;58605;48.700;8.760;2023-08-01T14:04:38;19.50;66.40
70947;DHT22;58605;48.700;8.760;2023-08-01T14:07:04;19.30;67.20
70947;DHT22;58605;48.700;8.760;2023-08-01T14:09:30;19.40;67.60
70947;DHT22;58605;48.700;8.760;2023-08-01T14:11:58;19.50;66.90
70947;DHT22;58605;48.700;8.760;2023-08-01T14:14:24;19.40;66.20
70947;DHT22;58605;48.700;8.760;2023-08-01T14:16:50;19.30;66.60
70947;DHT22;58605;48.700;8.760;2023-08-01T14:19:16;19.50;63.80
70947;DHT22;58605;48.700;8.760;2023-08-01T14:21:44;19.50;65.70
70947;DHT22;58605;48.700;8.760;2023-08-01T14:24:10;19.40;65.60
70947;DHT22;58605;48.700;8.760;2023-08-01T14:26:36;19.30;66.50
70947;DHT22;58605;48.700;8.760;2023-08-01T14:29:02;19.40;64.30
70947;DHT22;58605;48.700;8.760;2023-08-01T14:31:28;19.80;63.00
70947;DHT22;58605;48.700;8.760;2023-08-01T14:33:54;19.50;63.60
70947;DHT22;58605;48.700;8.760;2023-08-01T14:36:20;19.40;67.00
70947;DHT22;58605;48.700;8.760;2023-08-01T14:38:48;19.30;64.90
70947;DHT22;58605;48.700;8.760;2023-08-01T14:41:20;19.30;66.10
70947;DHT22;58605;48.700;8.760;2023-08-01T14:43:46;19.30;65.80
70947;DHT22;58605;48.700;8.760;2023-08-01T14:46:12;19.20;65.40
70947;DHT22;58605;48.700;8.760;2023-08-01T14:48:38;19.20;65.00
70947;DHT22;58605;48.700;8.760;2023-08-01T14:51:05;19.30;66.10
70947;DHT22;58605;48.700;8.760;2023-08-01T14:53:32;19.30;65.30
70947;DHT22;58605;48.700;8.760;2023-08-01T14:55:59;19.40;65.00
70947;DHT22;58605;48.700;8.760;2023-08-01T14:58:27;19.30;66.80
70947;DHT22;58605;48.700;8.760;2023-08-01T15:00:53;19.20;66.60
70947;DHT22;58605;48.700;8.760;2023-08-01T15:03:19;19.10;69.90
70947;DHT22;58605;48.700;8.760;2023-08-01T15:05:45;19.30;65.00
70947;DHT22;58605;48.700;8.760;2023-08-01T15:08:12;19.40;65.80
70947;DHT22;58605;48.700;8.760;2023-08-01T15:10:38;19.40;65.00
70947;DHT22;58605;48.700;8.760;2023-08-01T15:13:06;19.20;66.80
70947;DHT22;58605;48.700;8.760;2023-08-01T15:15:35;19.10;68.00
70947;DHT22;58605;48.700;8.760;2023-08-01T15:18:02;19.30;65.10
70947;DHT22;58605;48.700;8.760;2023-08-01T15:20:28;19.30;66.70
70947;DHT22;58605;48.700;8.760;2023-08-01T15:22:54;19.40;65.20
70947;DHT22;58605;48.700;8.760;2023-08-01T15:25:20;19.40;66.20
70947;DHT22;58605;48.700;8.760;2023-08-01T15:27:46;19.50;64.60
70947;DHT22;58605;48.700;8.760;2023-08-01T15:30:14;19.50;63.80